createdAt,value
2017-12-17T00:02:17.276Z,17.49
2017-12-17T00:04:44.429Z,17.48
2017-12-17T00:07:11.588Z,17.49
2017-12-17T00:09:38.769Z,17.49
2017-12-17T00:12:05.934Z,17.47
2017-12-17T00:14:33.117Z,17.46
2017-12-17T00:17:00.274Z,17.46
2017-12-17T00:19:27.435Z,17.44
2017-12-17T00:21:54.613Z,17.44
2017-12-17T00:24:21.781Z,17.44
2017-12-17T00:26:48.954Z,17.44
2017-12-17T00:29:16.113Z,17.43
2017-12-17T00:31:43.297Z,17.40
2017-12-17T00:34:10.459Z,17.39
2017-12-17T00:36:37.641Z,17.40
2017-12-17T00:39:04.793Z,17.39
2017-12-17T00:41:31.983Z,17.37
2017-12-17T00:43:59.141Z,17.37
2017-12-17T00:46:26.301Z,17.37
2017-12-17T00:48:53.511Z,17.36
2017-12-17T00:51:20.667Z,17.34
2017-12-17T00:53:47.829Z,17.34
2017-12-17T00:56:15.017Z,17.33
2017-12-17T00:58:42.177Z,17.32
2017-12-17T01:01:09.360Z,17.32
2017-12-17T01:03:36.527Z,17.32
2017-12-17T01:06:03.714Z,17.30
2017-12-17T01:08:30.880Z,17.31
2017-12-17T01:10:58.061Z,17.28
2017-12-17T01:13:25.492Z,17.28
2017-12-17T01:15:52.659Z,17.27
2017-12-17T01:18:19.810Z,17.26
2017-12-17T01:20:46.987Z,17.26
2017-12-17T01:23:14.169Z,17.25
2017-12-17T01:25:41.322Z,17.25
2017-12-17T01:28:08.755Z,17.25
2017-12-17T01:30:35.911Z,17.23
2017-12-17T01:33:03.067Z,17.23
2017-12-17T01:35:30.245Z,17.23
2017-12-17T01:37:57.405Z,17.22
2017-12-17T01:40:24.566Z,17.21
2017-12-17T01:42:51.752Z,17.20
2017-12-17T01:45:18.970Z,17.20
2017-12-17T01:47:46.098Z,17.19
2017-12-17T01:50:13.267Z,17.18
2017-12-17T01:52:40.427Z,17.18
2017-12-17T01:55:07.608Z,17.17
2017-12-17T01:57:34.775Z,17.15
2017-12-17T02:00:01.937Z,17.15
2017-12-17T02:02:29.128Z,17.15
2017-12-17T02:04:56.291Z,17.15
2017-12-17T02:07:23.484Z,17.14
2017-12-17T02:09:50.644Z,17.13
2017-12-17T02:12:17.839Z,17.12
2017-12-17T02:14:45.023Z,17.12
2017-12-17T02:17:12.186Z,17.11
2017-12-17T02:19:39.375Z,17.10
2017-12-17T02:22:06.568Z,17.12
2017-12-17T02:24:33.742Z,17.11
2017-12-17T02:27:00.911Z,17.10
2017-12-17T02:29:28.097Z,17.08
2017-12-17T02:31:55.268Z,17.08
2017-12-17T02:34:22.445Z,17.09
2017-12-17T02:36:49.600Z,17.07
2017-12-17T02:39:16.793Z,17.04
2017-12-17T02:41:43.955Z,17.06
2017-12-17T02:44:11.150Z,17.05
2017-12-17T02:46:38.318Z,17.05
2017-12-17T02:49:05.484Z,17.06
2017-12-17T02:51:32.673Z,17.03
2017-12-17T02:53:59.838Z,17.04
2017-12-17T02:56:27.027Z,17.03
2017-12-17T02:58:54.188Z,17.03
2017-12-17T03:01:21.470Z,17.01
2017-12-17T03:03:48.620Z,17.01
2017-12-17T03:06:15.786Z,17.01
2017-12-17T03:08:42.970Z,17.01
2017-12-17T03:11:10.135Z,16.99
2017-12-17T03:13:37.314Z,16.99
2017-12-17T03:16:04.473Z,17.00
2017-12-17T03:18:31.648Z,16.96
2017-12-17T03:20:58.808Z,16.96
2017-12-17T03:23:25.986Z,16.95
2017-12-17T03:25:53.170Z,16.97
2017-12-17T03:28:20.331Z,16.96
2017-12-17T03:30:47.516Z,16.95
2017-12-17T03:33:14.677Z,16.93
2017-12-17T03:35:41.885Z,16.93
2017-12-17T03:38:09.067Z,16.93
2017-12-17T03:40:36.235Z,16.93
2017-12-17T03:43:03.417Z,16.91
2017-12-17T03:45:30.587Z,16.90
2017-12-17T03:47:57.779Z,16.91
2017-12-17T03:50:24.958Z,16.91
2017-12-17T03:52:52.114Z,16.90
2017-12-17T03:55:19.395Z,16.89
2017-12-17T03:57:46.576Z,16.89
2017-12-17T04:00:13.753Z,16.88
2017-12-17T04:02:40.919Z,16.90
2017-12-17T04:05:08.089Z,16.87
2017-12-17T04:07:35.271Z,16.86
2017-12-17T04:10:02.453Z,16.87
2017-12-17T04:12:29.618Z,16.85
2017-12-17T04:14:56.801Z,16.86
2017-12-17T04:17:23.961Z,16.86
2017-12-17T04:19:51.122Z,16.84
2017-12-17T04:22:18.310Z,16.85
2017-12-17T04:24:45.471Z,16.84
2017-12-17T04:27:12.648Z,16.84
2017-12-17T04:29:39.806Z,16.84
2017-12-17T04:32:07.199Z,16.83
2017-12-17T04:34:34.358Z,16.82
2017-12-17T04:37:01.513Z,16.81
2017-12-17T04:39:28.701Z,16.80
2017-12-17T04:41:55.860Z,16.80
2017-12-17T04:44:23.039Z,16.80
2017-12-17T04:46:50.203Z,16.80
2017-12-17T04:49:17.407Z,16.79
2017-12-17T04:51:44.575Z,16.80
2017-12-17T04:54:11.761Z,16.79
2017-12-17T04:56:38.939Z,16.79
2017-12-17T04:59:06.093Z,16.79
2017-12-17T05:01:33.272Z,16.78
2017-12-17T05:04:00.432Z,16.79
2017-12-17T05:06:27.621Z,16.81
2017-12-17T05:08:54.779Z,16.83
2017-12-17T05:11:21.945Z,16.85
2017-12-17T05:13:49.132Z,16.88
2017-12-17T05:16:16.303Z,16.91
2017-12-17T05:18:43.491Z,16.95
2017-12-17T05:21:10.674Z,16.99
2017-12-17T05:23:37.835Z,17.02
2017-12-17T05:26:05.026Z,17.06
2017-12-17T05:28:32.188Z,17.09
2017-12-17T05:30:59.369Z,17.12
2017-12-17T05:33:26.528Z,17.16
2017-12-17T05:35:53.713Z,17.21
2017-12-17T05:38:20.879Z,17.24
2017-12-17T05:40:48.039Z,17.29
2017-12-17T05:43:15.237Z,17.34
2017-12-17T05:45:42.395Z,17.39
2017-12-17T05:48:09.578Z,17.43
2017-12-17T05:50:36.747Z,17.47
2017-12-17T05:53:03.939Z,17.51
2017-12-17T05:55:31.102Z,17.54
2017-12-17T05:57:58.262Z,17.58
2017-12-17T06:00:25.442Z,17.60
2017-12-17T06:02:52.595Z,17.63
2017-12-17T06:05:19.764Z,17.66
2017-12-17T06:07:46.932Z,17.70
2017-12-17T06:10:14.135Z,17.72
2017-12-17T06:12:41.294Z,17.76
2017-12-17T06:15:08.459Z,17.77
2017-12-17T06:17:35.654Z,17.78
2017-12-17T06:20:02.814Z,17.80
2017-12-17T06:22:30.019Z,17.81
2017-12-17T06:24:57.144Z,17.83
2017-12-17T06:27:24.345Z,17.85
2017-12-17T06:29:51.501Z,17.86
2017-12-17T06:32:18.662Z,17.88
2017-12-17T06:34:45.845Z,17.90
2017-12-17T06:37:12.998Z,17.91
2017-12-17T06:39:40.160Z,17.94
2017-12-17T06:42:07.347Z,17.95
2017-12-17T06:44:34.529Z,17.98
2017-12-17T06:47:01.690Z,17.99
2017-12-17T06:49:28.880Z,18.01
2017-12-17T06:51:56.042Z,18.02
2017-12-17T06:54:23.192Z,18.04
2017-12-17T06:56:50.375Z,18.07
2017-12-17T06:59:17.532Z,18.08
2017-12-17T07:01:44.719Z,18.09
2017-12-17T07:04:11.877Z,18.10
2017-12-17T07:06:39.040Z,18.10
2017-12-17T07:09:06.217Z,18.11
2017-12-17T07:11:33.382Z,18.11
2017-12-17T07:14:00.570Z,18.11
2017-12-17T07:16:27.727Z,18.13
2017-12-17T07:18:54.891Z,18.12
2017-12-17T07:21:22.082Z,18.13
2017-12-17T07:23:49.243Z,18.14
2017-12-17T07:26:16.415Z,18.14
2017-12-17T07:28:43.598Z,18.15
2017-12-17T07:31:10.779Z,18.16
2017-12-17T07:33:37.961Z,18.17
2017-12-17T07:36:05.117Z,18.17
2017-12-17T07:38:32.306Z,18.18
2017-12-17T07:40:59.473Z,18.19
2017-12-17T07:43:26.655Z,18.20
2017-12-17T07:45:53.815Z,18.22
2017-12-17T07:48:21.001Z,18.24
2017-12-17T07:50:48.161Z,18.24
2017-12-17T07:53:15.344Z,18.25
2017-12-17T07:55:42.513Z,18.26
2017-12-17T07:58:09.719Z,18.27
2017-12-17T08:00:36.877Z,18.28
2017-12-17T08:03:04.046Z,18.36
2017-12-17T08:05:31.227Z,18.40
2017-12-17T08:07:58.392Z,18.41
2017-12-17T08:10:25.673Z,18.41
2017-12-17T08:12:52.832Z,18.40
2017-12-17T08:15:19.997Z,18.40
2017-12-17T08:17:47.168Z,18.38
2017-12-17T08:20:14.329Z,18.38
2017-12-17T08:22:41.654Z,18.34
2017-12-17T08:25:08.814Z,18.33
2017-12-17T08:27:35.989Z,18.32
2017-12-17T08:30:03.159Z,18.30
2017-12-17T08:32:30.319Z,18.30
2017-12-17T08:34:57.492Z,18.29
2017-12-17T08:37:24.668Z,18.29
2017-12-17T08:39:51.841Z,18.30
2017-12-17T08:42:19.174Z,18.30
2017-12-17T08:44:46.331Z,18.31
2017-12-17T08:47:13.485Z,18.31
2017-12-17T08:49:40.660Z,18.32
2017-12-17T08:52:07.871Z,18.32
2017-12-17T08:54:35.025Z,18.31
2017-12-17T08:57:02.205Z,18.31
2017-12-17T08:59:29.366Z,18.31
2017-12-17T09:01:56.530Z,18.32
2017-12-17T09:04:23.719Z,18.32
2017-12-17T09:06:50.878Z,18.31
2017-12-17T09:09:18.084Z,18.32
2017-12-17T09:11:45.245Z,18.32
2017-12-17T09:14:12.430Z,18.32
2017-12-17T09:16:39.596Z,18.35
2017-12-17T09:19:06.889Z,18.34
2017-12-17T09:21:34.045Z,18.34
2017-12-17T09:24:01.210Z,18.35
2017-12-17T09:26:28.390Z,18.35
2017-12-17T09:28:55.573Z,18.34
2017-12-17T09:31:22.759Z,18.35
2017-12-17T09:33:49.922Z,18.35
2017-12-17T09:36:17.106Z,18.35
2017-12-17T09:38:44.266Z,18.34
2017-12-17T09:41:11.441Z,18.35
2017-12-17T09:43:38.637Z,18.43
2017-12-17T09:46:05.798Z,18.43
2017-12-17T09:48:33.036Z,18.48
2017-12-17T09:51:00.270Z,18.51
2017-12-17T09:53:27.428Z,18.53
2017-12-17T09:55:54.846Z,18.56
2017-12-17T09:58:22.006Z,18.61
2017-12-17T10:00:49.274Z,18.72
2017-12-17T10:03:16.510Z,18.65
2017-12-17T10:05:43.694Z,18.63
2017-12-17T10:08:10.863Z,18.64
2017-12-17T10:10:38.027Z,18.65
2017-12-17T10:13:05.240Z,18.66
2017-12-17T10:15:32.397Z,18.67
2017-12-17T10:17:59.595Z,18.82
2017-12-17T10:20:26.881Z,18.89
2017-12-17T10:22:54.041Z,18.95
2017-12-17T10:25:21.218Z,18.96
2017-12-17T10:27:48.406Z,19.04
2017-12-17T10:30:15.582Z,19.09
2017-12-17T10:32:42.880Z,19.06
2017-12-17T10:35:09.947Z,19.08
2017-12-17T10:37:37.130Z,19.05
2017-12-17T10:40:04.293Z,19.03
2017-12-17T10:42:31.475Z,19.21
2017-12-17T10:44:58.685Z,19.11
2017-12-17T10:47:25.838Z,19.13
2017-12-17T10:49:53.022Z,19.12
2017-12-17T10:52:20.183Z,19.14
2017-12-17T10:54:47.363Z,19.17
2017-12-17T10:57:14.528Z,19.01
2017-12-17T10:59:41.708Z,18.95
2017-12-17T11:02:08.877Z,18.94
2017-12-17T11:04:36.059Z,18.92
2017-12-17T11:07:03.221Z,18.93
2017-12-17T11:09:30.373Z,18.90
2017-12-17T11:11:57.553Z,18.91
2017-12-17T11:14:24.719Z,18.90
2017-12-17T11:16:51.916Z,18.89
2017-12-17T11:40:23.022Z,19.02
2017-12-17T11:44:48.480Z,19.03
2017-12-17T11:52:19.891Z,18.97
2017-12-17T11:54:47.132Z,19.01
2017-12-17T11:57:14.369Z,19.01
2017-12-17T12:00:22.424Z,18.99
2017-12-17T12:02:49.665Z,18.87
2017-12-17T12:05:16.898Z,18.82
2017-12-17T12:07:44.161Z,18.79
2017-12-17T12:10:11.429Z,18.78
2017-12-17T12:12:38.658Z,18.78
2017-12-17T12:15:05.899Z,18.78
2017-12-17T12:17:33.152Z,18.78
2017-12-17T12:20:00.759Z,18.78
2017-12-17T12:22:27.997Z,18.78
2017-12-17T12:24:55.264Z,18.79
2017-12-17T12:27:22.518Z,18.79
2017-12-17T12:29:49.749Z,18.80
2017-12-17T12:32:17.005Z,18.83
2017-12-17T12:34:44.243Z,18.76
2017-12-17T12:37:11.504Z,18.72
2017-12-17T12:39:38.749Z,18.68
2017-12-17T12:42:05.978Z,18.66
2017-12-17T12:44:33.232Z,18.65
2017-12-17T12:47:00.463Z,18.63
2017-12-17T12:49:27.727Z,18.63
2017-12-17T12:51:54.969Z,18.62
2017-12-17T12:54:22.206Z,18.61
2017-12-17T12:56:49.469Z,18.59
2017-12-17T12:59:16.696Z,18.59
2017-12-17T13:01:43.957Z,18.57
2017-12-17T13:04:11.224Z,18.52
2017-12-17T13:06:38.488Z,18.51
2017-12-17T13:09:05.721Z,18.50
2017-12-17T13:11:32.968Z,18.50
2017-12-17T13:14:00.226Z,18.49
2017-12-17T13:16:27.464Z,18.49
2017-12-17T13:18:54.701Z,18.48
2017-12-17T13:21:21.963Z,18.48
2017-12-17T13:23:49.202Z,18.48
2017-12-17T13:26:16.437Z,18.48
2017-12-17T13:28:43.702Z,18.48
2017-12-17T13:31:10.938Z,18.47
2017-12-17T13:33:38.170Z,18.48
2017-12-17T13:36:05.424Z,18.46
2017-12-17T13:38:32.659Z,18.47
2017-12-17T13:41:00.130Z,18.52
2017-12-17T13:43:27.367Z,18.54
2017-12-17T13:45:54.597Z,18.57
2017-12-17T13:54:00.598Z,18.88
2017-12-17T13:56:27.862Z,18.91
2017-12-17T13:58:55.154Z,18.93
2017-12-17T14:01:22.417Z,18.96
2017-12-17T14:07:32.840Z,19.06
2017-12-17T14:34:59.950Z,19.48
2017-12-17T14:37:27.536Z,19.47
2017-12-17T14:39:54.822Z,19.46
2017-12-17T14:54:59.118Z,19.50
2017-12-17T14:57:26.410Z,19.48
2017-12-17T14:59:53.654Z,19.46
2017-12-17T15:02:20.907Z,19.43
2017-12-17T15:04:48.161Z,19.41
2017-12-17T15:07:15.445Z,19.40
2017-12-17T15:20:11.725Z,19.53
2017-12-17T15:22:39.320Z,19.53
2017-12-17T15:25:06.775Z,19.49
2017-12-17T15:27:34.237Z,19.45
2017-12-17T15:30:01.933Z,19.44
2017-12-17T15:32:29.387Z,19.41
2017-12-17T15:34:57.060Z,19.38
2017-12-17T15:37:24.512Z,19.34
2017-12-17T15:39:51.974Z,19.31
2017-12-17T15:42:19.439Z,19.25
2017-12-17T15:44:46.935Z,19.20
2017-12-17T15:47:14.393Z,19.18
2017-12-17T15:49:42.079Z,19.15
2017-12-17T15:52:09.539Z,19.13
2017-12-17T15:54:37.008Z,19.10
2017-12-17T15:57:04.540Z,19.08
2017-12-17T15:59:32.131Z,19.05
2017-12-17T16:01:59.619Z,19.03
2017-12-17T16:04:27.063Z,19.01
2017-12-17T16:06:54.540Z,18.98
2017-12-17T16:09:22.019Z,18.98
2017-12-17T16:11:49.486Z,18.95
2017-12-17T16:14:16.965Z,18.91
2017-12-17T16:16:44.435Z,18.88
2017-12-17T16:19:11.902Z,18.85
2017-12-17T16:21:39.403Z,18.82
2017-12-17T16:24:06.862Z,18.82
2017-12-17T16:26:34.519Z,18.80
2017-12-17T16:29:02.224Z,18.78
2017-12-17T16:31:29.682Z,18.79
2017-12-17T16:33:57.341Z,16.22
2017-12-17T16:36:24.811Z,18.79
2017-12-17T16:38:53.283Z,18.81
2017-12-17T16:41:20.767Z,18.82
2017-12-17T16:43:48.251Z,18.83
2017-12-17T16:46:15.707Z,18.84
2017-12-17T16:48:43.191Z,18.86
2017-12-17T16:51:10.648Z,18.87
2017-12-17T16:53:38.137Z,18.89
2017-12-17T16:56:05.596Z,18.91
2017-12-17T16:58:33.074Z,18.92
2017-12-17T17:01:00.548Z,18.95
2017-12-17T17:03:28.007Z,18.95
2017-12-17T17:05:55.700Z,19.01
2017-12-17T17:12:37.061Z,19.10
2017-12-17T17:15:04.329Z,19.15
2017-12-17T17:24:49.611Z,19.26
2017-12-17T17:27:16.895Z,19.30
2017-12-17T17:29:44.149Z,19.34
2017-12-17T18:17:57.548Z,19.35
2017-12-17T18:20:25.725Z,19.37
2017-12-17T18:22:53.168Z,19.39
2017-12-17T18:25:20.633Z,19.39
2017-12-17T18:29:00.906Z,19.38
2017-12-17T18:31:28.374Z,19.23
2017-12-17T18:33:55.850Z,19.15
2017-12-17T18:36:23.503Z,19.09
2017-12-17T18:38:51.179Z,19.06
2017-12-17T18:41:18.659Z,19.06
2017-12-17T18:43:46.119Z,19.04
2017-12-17T18:46:13.808Z,19.03
2017-12-17T18:48:41.256Z,19.01
2017-12-17T18:51:08.710Z,19.01
2017-12-17T18:53:36.412Z,19.01
2017-12-17T18:56:03.854Z,19.00
2017-12-17T18:58:31.321Z,18.97
2017-12-17T19:00:58.976Z,18.89
2017-12-17T19:03:26.431Z,18.86
2017-12-17T19:05:53.903Z,18.83
2017-12-17T19:08:21.454Z,18.82
2017-12-17T19:10:49.039Z,18.81
2017-12-17T19:13:16.487Z,18.79
2017-12-17T19:15:43.969Z,18.78
2017-12-17T19:18:11.446Z,18.76
2017-12-17T19:20:38.904Z,18.75
2017-12-17T19:23:06.383Z,18.74
2017-12-17T19:25:33.834Z,18.73
2017-12-17T19:28:01.451Z,18.71
2017-12-17T19:30:28.909Z,18.70
2017-12-17T19:32:56.560Z,18.69
2017-12-17T19:35:24.063Z,18.68
2017-12-17T19:37:51.515Z,18.65
2017-12-17T19:40:19.175Z,18.64
2017-12-17T19:42:46.621Z,18.62
2017-12-17T19:45:14.072Z,18.61
2017-12-17T19:47:41.540Z,18.58
2017-12-17T19:50:08.986Z,18.57
2017-12-17T19:52:36.464Z,18.55
2017-12-17T19:55:03.912Z,18.54
2017-12-17T19:57:31.817Z,18.61
2017-12-17T19:59:59.271Z,18.61
2017-12-17T20:02:26.756Z,18.64
2017-12-17T20:04:54.448Z,18.64
2017-12-17T20:07:22.099Z,18.63
2017-12-17T20:09:49.556Z,18.62
2017-12-17T20:12:17.227Z,18.63
2017-12-17T20:14:44.703Z,18.60
2017-12-17T20:17:12.148Z,18.61
2017-12-17T20:19:39.447Z,18.59
2017-12-17T20:22:06.716Z,18.59
2017-12-17T20:24:34.175Z,18.59
2017-12-17T20:27:01.661Z,18.58
2017-12-17T20:29:29.092Z,18.59
2017-12-17T20:31:56.580Z,18.56
2017-12-17T20:34:23.859Z,18.56
2017-12-17T20:36:51.354Z,18.57
2017-12-17T20:39:18.803Z,18.54
2017-12-17T20:41:46.455Z,18.55
2017-12-17T20:44:13.904Z,18.53
2017-12-17T20:46:41.369Z,18.52
2017-12-17T20:49:08.844Z,18.52
2017-12-17T20:51:36.492Z,18.53
2017-12-17T20:54:03.956Z,18.46
2017-12-17T20:56:31.624Z,18.39
2017-12-17T20:58:59.111Z,18.36
2017-12-17T21:01:26.563Z,18.31
2017-12-17T21:03:54.036Z,18.30
2017-12-17T21:06:21.512Z,18.28
2017-12-17T21:08:48.972Z,18.27
2017-12-17T21:11:16.556Z,18.22
2017-12-17T21:13:44.040Z,18.21
2017-12-17T21:16:11.494Z,18.18
2017-12-17T21:18:38.974Z,18.18
2017-12-17T21:21:06.502Z,18.16
2017-12-17T21:23:33.955Z,18.16
2017-12-17T21:26:01.442Z,18.14
2017-12-17T21:28:28.902Z,18.12
2017-12-17T21:30:56.446Z,18.11
2017-12-17T21:33:24.119Z,18.09
2017-12-17T21:35:51.569Z,18.08
2017-12-17T21:38:19.043Z,18.06
2017-12-17T21:40:46.483Z,18.05
2017-12-17T21:43:13.964Z,18.03
2017-12-17T21:45:41.444Z,18.01
2017-12-17T21:48:08.908Z,17.99
2017-12-17T21:50:36.374Z,18.00
2017-12-17T21:53:03.827Z,17.97
2017-12-17T21:55:31.311Z,17.97
2017-12-17T21:57:58.752Z,17.94
2017-12-17T22:00:26.240Z,17.93
2017-12-17T22:02:53.703Z,17.92
2017-12-17T22:05:21.171Z,17.96
2017-12-17T22:07:48.847Z,17.98
2017-12-17T22:10:16.291Z,17.97
2017-12-17T22:12:43.766Z,17.96
2017-12-17T22:15:11.430Z,17.95
2017-12-17T22:17:38.912Z,17.95
2017-12-17T22:20:06.396Z,17.93
2017-12-17T22:22:33.883Z,17.91
2017-12-17T22:25:01.340Z,17.91
2017-12-17T22:27:28.794Z,17.90
2017-12-17T22:29:56.452Z,17.90
2017-12-17T22:32:23.956Z,17.89
2017-12-17T22:34:51.800Z,17.85
2017-12-17T22:37:19.255Z,17.86
2017-12-17T22:39:46.920Z,17.84
2017-12-17T22:42:14.383Z,17.84
2017-12-17T22:44:41.861Z,17.82
2017-12-17T22:47:09.317Z,17.80
2017-12-17T22:49:36.815Z,17.79
2017-12-17T22:52:04.479Z,17.78
2017-12-17T22:54:32.132Z,17.76
2017-12-17T22:56:59.629Z,17.75
2017-12-17T22:59:27.274Z,17.74
2017-12-17T23:01:54.817Z,17.72
2017-12-17T23:04:22.286Z,17.71
2017-12-17T23:06:49.761Z,17.69
2017-12-17T23:09:17.747Z,17.69
2017-12-17T23:11:45.192Z,17.69
2017-12-17T23:14:12.640Z,17.68
2017-12-17T23:16:40.120Z,17.65
2017-12-17T23:19:07.578Z,17.65
2017-12-17T23:21:35.247Z,17.65
2017-12-17T23:24:02.754Z,17.62
2017-12-17T23:26:30.195Z,17.60
2017-12-17T23:28:57.676Z,17.59
2017-12-17T23:31:25.331Z,17.58
2017-12-17T23:33:52.818Z,17.57
2017-12-17T23:36:20.462Z,17.58
2017-12-17T23:38:47.933Z,17.56
2017-12-17T23:41:15.396Z,17.54
2017-12-17T23:43:42.875Z,17.53
2017-12-17T23:46:10.331Z,17.53
2017-12-17T23:48:37.799Z,17.52
2017-12-17T23:51:05.078Z,17.51
2017-12-17T23:53:32.532Z,17.50
2017-12-17T23:56:00.011Z,17.50
2017-12-17T23:58:27.454Z,17.48
